NCAR-RAP Real-Time Weather Data

Output produced by METARs form (01 December 2020  17:24 UTC)
found at http://weather.rap.ucar.edu/surface/
 
KVCT 011651Z 14008KT 10SM CLR 15/04 A3024 RMK AO2 SLP240 T01500044
KVCT 011551Z 11005KT 10SM CLR 11/02 A3026 RMK AO2 SLP247 T01110022
KVCT 011451Z 10003KT 10SM CLR 07/03 A3028 RMK AO2 SLP252 T00720028 51002
KVCT 011351Z 00000KT 10SM CLR 01/M01 A3028 RMK AO2 SLP253 T00111006
KVCT 011251Z 00000KT 10SM CLR 00/M02 A3027 RMK AO2 SLP252 T00001022
KVCT 011151Z AUTO 00000KT 10SM CLR M01/M03 A3027 RMK AO2 SLP251 T10061028 10017 21011 57005
KVCT 011051Z AUTO 00000KT 10SM CLR M01/M02 A3027 RMK AO2 SLP251 T10061017
KVCT 010951Z AUTO 27003KT 10SM CLR M01/M02 A3029 RMK AO2 SLP255 T10111022
KVCT 010851Z AUTO 08004KT 10SM CLR 01/M01 A3029 RMK AO2 SLP255 T00111011 56021
KVCT 010751Z AUTO 06005KT 10SM CLR 01/M01 A3030 RMK AO2 SLP258 T00061011
KVCT 010651Z AUTO 03003KT 10SM CLR 02/M01 A3032 RMK AO2 SLP266 T00171006
KVCT 010551Z AUTO 28004KT 10SM CLR 01/M01 A3035 RMK AO2 SLP276 T00111006 10083 20011 401390011 58006
KVCT 010451Z AUTO 28003KT 10SM CLR 02/00 A3036 RMK AO2 SLP280 T00220000
KVCT 010351Z AUTO 00000KT 10SM CLR 03/M01 A3037 RMK AO2 SLP283 T00331006
KVCT 010251Z 00000KT 10SM CLR 04/M01 A3037 RMK AO2 SLP283 T00441006 51010